createdAt,value
2018-09-29T00:00:59.276Z,8.86
2018-09-29T00:02:08.692Z,8.81
2018-09-29T00:03:18.846Z,8.77
2018-09-29T00:04:28.494Z,8.77
2018-09-29T00:05:37.953Z,8.86
2018-09-29T00:06:47.394Z,8.77
2018-09-29T00:07:57.334Z,8.79
2018-09-29T00:09:07.009Z,8.75
2018-09-29T00:10:17.080Z,8.75
2018-09-29T00:11:27.389Z,8.84
2018-09-29T00:12:37.059Z,8.78
2018-09-29T00:13:46.726Z,8.74
2018-09-29T00:14:56.672Z,8.71
2018-09-29T00:16:06.682Z,8.78
2018-09-29T00:17:16.634Z,8.77
2018-09-29T00:18:25.787Z,8.75
2018-09-29T00:19:35.745Z,8.81
2018-09-29T00:20:45.432Z,8.78
2018-09-29T00:21:54.853Z,8.74
2018-09-29T00:23:04.785Z,8.79
2018-09-29T00:24:14.718Z,8.71
2018-09-29T00:25:24.667Z,8.77
2018-09-29T00:26:34.621Z,8.69
2018-09-29T00:27:44.558Z,8.71
2018-09-29T00:28:54.248Z,8.66
2018-09-29T00:30:04.199Z,8.72
2018-09-29T00:31:13.885Z,8.79
2018-09-29T00:32:23.577Z,8.77
2018-09-29T00:33:33.569Z,8.69
2018-09-29T00:34:43.511Z,8.71
2018-09-29T00:35:53.451Z,8.71
2018-09-29T00:37:03.394Z,8.79
2018-09-29T00:38:13.329Z,8.75
2018-09-29T00:39:23.267Z,8.77
2018-09-29T00:40:33.180Z,8.86
2018-09-29T00:41:42.876Z,8.79
2018-09-29T00:42:52.825Z,8.79
2018-09-29T00:44:02.764Z,8.82
2018-09-29T00:45:12.707Z,8.79
2018-09-29T00:46:22.646Z,8.84
2018-09-29T00:47:32.599Z,8.86
2018-09-29T00:48:42.275Z,8.81
2018-09-29T00:49:51.698Z,8.84
2018-09-29T00:51:01.388Z,8.89
2018-09-29T00:52:11.062Z,8.81
2018-09-29T00:53:20.742Z,8.82
2018-09-29T00:54:30.178Z,8.81
2018-09-29T00:55:40.112Z,8.87
2018-09-29T00:56:50.065Z,8.84
2018-09-29T00:57:59.728Z,8.82
2018-09-29T00:59:09.669Z,8.86
2018-09-29T01:00:19.609Z,8.77
2018-09-29T01:01:29.548Z,8.79
2018-09-29T01:02:39.530Z,8.87
2018-09-29T01:03:49.519Z,8.81
2018-09-29T01:04:59.461Z,8.72
2018-09-29T01:06:09.397Z,8.77
2018-09-29T01:07:18.839Z,8.82
2018-09-29T01:08:28.784Z,8.72
2018-09-29T01:09:38.718Z,8.72
2018-09-29T01:10:48.655Z,8.68
2018-09-29T01:11:58.598Z,8.77
2018-09-29T01:13:08.532Z,8.69
2018-09-29T01:14:18.225Z,8.64
2018-09-29T01:15:28.156Z,8.68
2018-09-29T01:16:38.097Z,8.6
2018-09-29T01:17:47.258Z,8.69
2018-09-29T01:18:56.943Z,8.64
2018-09-29T01:20:06.907Z,8.53
2018-09-29T01:21:16.592Z,8.56
2018-09-29T01:22:26.270Z,8.54
2018-09-29T01:23:36.211Z,8.52
2018-09-29T01:24:45.901Z,8.56
2018-09-29T01:25:55.856Z,8.52
2018-09-29T01:27:05.861Z,8.49
2018-09-29T01:28:15.812Z,8.39
2018-09-29T01:29:25.765Z,8.39
2018-09-29T01:30:35.702Z,8.35
2018-09-29T01:31:45.384Z,8.36
2018-09-29T01:32:55.338Z,8.35
2018-09-29T01:34:05.025Z,8.39
2018-09-29T01:35:14.966Z,8.41
2018-09-29T01:36:24.921Z,8.32
2018-09-29T01:37:34.872Z,8.35
2018-09-29T01:38:44.823Z,8.34
2018-09-29T01:39:54.782Z,8.32
2018-09-29T01:41:04.721Z,8.23
2018-09-29T01:42:14.663Z,8.2
2018-09-29T01:43:24.621Z,8.17
2018-09-29T01:44:34.565Z,8.2
2018-09-29T01:45:44.494Z,8.2
2018-09-29T01:46:54.482Z,8.18
2018-09-29T01:48:04.477Z,8.2
2018-09-29T01:49:14.428Z,8.16
2018-09-29T01:50:24.392Z,8.17
2018-09-29T01:51:34.093Z,8.14
2018-09-29T01:52:44.035Z,8.11
2018-09-29T01:53:53.988Z,8.08
2018-09-29T01:55:03.676Z,8.01
2018-09-29T01:56:13.613Z,8.06
2018-09-29T01:57:23.565Z,8.06
2018-09-29T01:58:33.517Z,8.08
2018-09-29T01:59:43.475Z,8.13
2018-09-29T02:00:53.415Z,8.06
2018-09-29T02:02:03.340Z,8.01
2018-09-29T02:03:13.281Z,8.05
2018-09-29T02:04:22.979Z,7.95
2018-09-29T02:05:32.675Z,8.05
2018-09-29T02:06:42.606Z,8.02
2018-09-29T02:07:52.648Z,8.03
2018-09-29T02:09:02.625Z,7.99
2018-09-29T02:10:12.562Z,8.02
2018-09-29T02:11:22.505Z,7.99
2018-09-29T02:12:32.477Z,7.99
2018-09-29T02:13:42.149Z,7.91
2018-09-29T02:14:52.093Z,7.85
2018-09-29T02:16:02.032Z,7.87
2018-09-29T02:17:11.720Z,7.88
2018-09-29T02:18:21.424Z,7.91
2018-09-29T02:19:31.369Z,7.9
2018-09-29T02:20:41.319Z,7.9
2018-09-29T02:21:51.288Z,7.83
2018-09-29T02:23:00.970Z,7.88
2018-09-29T02:24:10.650Z,7.78
2018-09-29T02:25:20.596Z,7.87
2018-09-29T02:26:30.539Z,7.84
2018-09-29T02:27:40.494Z,7.85
2018-09-29T02:28:50.562Z,7.87
2018-09-29T02:30:00.515Z,7.88
2018-09-29T02:31:10.473Z,7.75
2018-09-29T02:32:20.161Z,7.74
2018-09-29T02:33:30.113Z,7.72
2018-09-29T02:34:39.556Z,7.8
2018-09-29T02:35:49.270Z,7.83
2018-09-29T02:36:59.214Z,7.81
2018-09-29T02:38:09.179Z,7.78
2018-09-29T02:39:18.868Z,7.7
2018-09-29T02:40:28.305Z,7.74
2018-09-29T02:41:37.982Z,7.8
2018-09-29T02:42:47.945Z,7.69
2018-09-29T02:43:57.913Z,7.74
2018-09-29T02:45:07.597Z,7.64
2018-09-29T02:46:17.543Z,7.62
2018-09-29T02:47:27.234Z,7.69
2018-09-29T02:48:36.669Z,7.58
2018-09-29T02:49:46.627Z,7.66
2018-09-29T02:50:56.333Z,7.66
2018-09-29T02:52:06.040Z,7.66
2018-09-29T02:53:15.995Z,7.64
2018-09-29T02:54:25.948Z,7.61
2018-09-29T02:55:35.642Z,7.61
2018-09-29T02:56:45.589Z,7.62
2018-09-29T02:57:55.276Z,7.59
2018-09-29T02:59:05.236Z,7.66
2018-09-29T03:00:15.195Z,7.59
2018-09-29T03:01:25.151Z,7.59
2018-09-29T03:02:35.110Z,7.64
2018-09-29T03:03:45.040Z,7.61
2018-09-29T03:04:54.724Z,7.58
2018-09-29T03:06:04.681Z,7.56
2018-09-29T03:07:14.929Z,7.51
2018-09-29T03:08:24.799Z,7.53
2018-09-29T03:09:34.751Z,7.59
2018-09-29T03:10:44.457Z,7.46
2018-09-29T03:11:54.403Z,7.46
2018-09-29T03:13:04.358Z,7.46
2018-09-29T03:14:13.787Z,7.47
2018-09-29T03:15:23.481Z,7.5
2018-09-29T03:16:33.450Z,7.43
2018-09-29T03:17:43.401Z,7.47
2018-09-29T03:18:53.077Z,7.47
2018-09-29T03:20:03.014Z,7.51
2018-09-29T03:21:12.693Z,7.41
2018-09-29T03:22:22.375Z,7.47
2018-09-29T03:23:32.066Z,7.4
2018-09-29T03:24:42.010Z,7.41
2018-09-29T03:25:51.977Z,7.4
2018-09-29T03:27:01.910Z,7.32
2018-09-29T03:28:11.587Z,7.33
2018-09-29T03:29:21.534Z,7.36
2018-09-29T03:30:31.516Z,7.33
2018-09-29T03:31:41.545Z,7.4
2018-09-29T03:32:52.060Z,7.32
2018-09-29T03:34:01.999Z,7.4
2018-09-29T03:35:11.943Z,7.29
2018-09-29T03:36:21.892Z,7.37
2018-09-29T03:37:31.828Z,7.31
2018-09-29T03:38:42.026Z,7.28
2018-09-29T03:39:51.971Z,7.29
2018-09-29T03:41:01.661Z,7.31
2018-09-29T03:42:11.343Z,7.32
2018-09-29T03:43:21.295Z,7.32
2018-09-29T03:44:31.228Z,7.31
2018-09-29T03:45:41.185Z,7.29
2018-09-29T03:46:51.143Z,7.36
2018-09-29T03:48:01.084Z,7.28
2018-09-29T03:49:10.780Z,7.32
2018-09-29T03:50:20.477Z,7.26
2018-09-29T03:51:29.653Z,7.32
2018-09-29T03:52:39.611Z,7.28
2018-09-29T03:53:49.667Z,7.37
2018-09-29T03:54:59.352Z,7.33
2018-09-29T03:56:09.309Z,7.33
2018-09-29T03:57:19.019Z,7.33
2018-09-29T03:58:28.962Z,7.32
2018-09-29T03:59:38.732Z,7.28
2018-09-29T04:00:48.419Z,7.23
2018-09-29T04:01:58.359Z,7.15
2018-09-29T04:03:08.320Z,7.18
2018-09-29T04:04:18.289Z,7.18
2018-09-29T04:05:28.216Z,7.28
2018-09-29T04:06:37.924Z,7.21
2018-09-29T04:07:47.602Z,7.21
2018-09-29T04:08:57.575Z,7.14
2018-09-29T04:10:07.518Z,7.13
2018-09-29T04:11:17.477Z,7.08
2018-09-29T04:12:27.419Z,7.01
2018-09-29T04:13:37.113Z,7.14
2018-09-29T04:14:47.179Z,7.05
2018-09-29T04:15:56.871Z,7.04
2018-09-29T04:17:06.804Z,7.01
2018-09-29T04:18:16.491Z,6.96
2018-09-29T04:19:26.454Z,6.97
2018-09-29T04:20:36.401Z,6.9
2018-09-29T04:21:46.345Z,6.95
2018-09-29T04:22:56.352Z,6.83
2018-09-29T04:24:06.035Z,6.89
2018-09-29T04:25:15.973Z,6.87
2018-09-29T04:26:25.975Z,6.8
2018-09-29T04:27:35.926Z,6.71
2018-09-29T04:28:45.921Z,6.68
2018-09-29T04:29:55.855Z,6.64
2018-09-29T04:31:05.796Z,6.59
2018-09-29T04:32:15.750Z,6.56
2018-09-29T04:33:25.702Z,6.59
2018-09-29T04:34:35.386Z,6.64
2018-09-29T04:35:45.120Z,6.57
2018-09-29T04:36:54.769Z,6.6
2018-09-29T04:38:04.712Z,6.5
2018-09-29T04:39:14.149Z,6.44
2018-09-29T04:40:24.130Z,6.49
2018-09-29T04:41:33.859Z,6.38
2018-09-29T04:42:43.289Z,6.36
2018-09-29T04:43:53.250Z,6.39
2018-09-29T04:45:03.189Z,6.43
2018-09-29T04:46:13.127Z,6.36
2018-09-29T04:47:23.062Z,6.38
2018-09-29T04:48:33.006Z,6.38
2018-09-29T04:49:42.685Z,6.36
2018-09-29T04:50:52.636Z,6.38
2018-09-29T04:52:02.639Z,6.31
2018-09-29T04:53:12.584Z,6.28
2018-09-29T04:54:22.266Z,6.31
2018-09-29T04:55:32.204Z,6.25
2018-09-29T04:56:41.900Z,6.2
2018-09-29T04:57:51.838Z,6.2
2018-09-29T04:59:01.541Z,6.25
2018-09-29T05:00:11.226Z,6.16
2018-09-29T05:01:21.163Z,6.2
2018-09-29T05:02:31.121Z,6.16
2018-09-29T05:03:41.065Z,6.15
2018-09-29T05:04:51.061Z,6.17
2018-09-29T05:06:01.002Z,6.15
2018-09-29T05:07:10.682Z,6.17
2018-09-29T05:08:20.633Z,6.16
2018-09-29T05:09:30.309Z,6.07
2018-09-29T05:10:40.270Z,6.13
2018-09-29T05:11:49.969Z,6.19
2018-09-29T05:12:59.931Z,6.07
2018-09-29T05:14:10.117Z,6.06
2018-09-29T05:15:20.056Z,6.12
2018-09-29T05:16:30.002Z,6.12
2018-09-29T05:17:39.965Z,6.02
2018-09-29T05:18:49.657Z,5.97
2018-09-29T05:19:59.587Z,6.06
2018-09-29T05:21:09.533Z,6.01
2018-09-29T05:22:19.205Z,5.99
2018-09-29T05:23:28.907Z,5.97
2018-09-29T05:24:38.596Z,6.06
2018-09-29T05:25:48.538Z,6.06
2018-09-29T05:26:58.234Z,5.91
2018-09-29T05:28:08.192Z,5.98
2018-09-29T05:29:18.134Z,5.97
2018-09-29T05:30:28.080Z,5.94
2018-09-29T05:31:38.032Z,5.95
2018-09-29T05:32:47.718Z,5.88
2018-09-29T05:33:57.667Z,5.92
2018-09-29T05:35:07.374Z,5.97
2018-09-29T05:36:16.573Z,5.95
2018-09-29T05:37:26.529Z,5.87
2018-09-29T05:38:36.681Z,5.95
2018-09-29T05:39:46.373Z,5.87
2018-09-29T05:40:56.320Z,5.88
2018-09-29T05:42:06.272Z,5.88
2018-09-29T05:43:15.964Z,5.83
2018-09-29T05:44:25.912Z,5.87
2018-09-29T05:45:35.870Z,5.83
2018-09-29T05:46:45.543Z,5.84
2018-09-29T05:47:55.481Z,5.8
2018-09-29T05:49:05.419Z,5.83
2018-09-29T05:50:15.358Z,5.8
2018-09-29T05:51:25.292Z,5.72
2018-09-29T05:52:35.255Z,5.77
2018-09-29T05:53:45.289Z,5.8
2018-09-29T05:54:55.324Z,5.76
2018-09-29T05:56:05.281Z,5.83
2018-09-29T05:57:15.231Z,5.81
2018-09-29T05:58:24.916Z,5.74
2018-09-29T05:59:34.882Z,5.83
2018-09-29T06:00:45.168Z,5.8
2018-09-29T06:01:54.942Z,5.87
2018-09-29T06:03:04.683Z,5.88
2018-09-29T06:04:14.639Z,5.88
2018-09-29T06:05:24.635Z,5.95
2018-09-29T06:06:34.754Z,5.95
2018-09-29T06:07:44.710Z,5.92
2018-09-29T06:08:54.690Z,5.92
2018-09-29T06:10:04.644Z,5.97
2018-09-29T06:11:14.588Z,5.99
2018-09-29T06:12:24.530Z,6.05
2018-09-29T06:13:34.484Z,6.07
2018-09-29T06:14:44.437Z,6.02
2018-09-29T06:15:54.141Z,6.12
2018-09-29T06:17:03.856Z,6.09
2018-09-29T06:18:13.799Z,6.15
2018-09-29T06:19:23.736Z,6.01
2018-09-29T06:20:33.422Z,6.13
2018-09-29T06:21:42.856Z,6.13
2018-09-29T06:22:52.795Z,6.13
2018-09-29T06:24:02.484Z,6.22
2018-09-29T06:25:12.181Z,6.29
2018-09-29T06:26:22.119Z,6.31
2018-09-29T06:27:32.067Z,6.35
2018-09-29T06:28:42.025Z,6.36
2018-09-29T06:29:51.983Z,6.43
2018-09-29T06:31:01.940Z,6.39
2018-09-29T06:32:11.637Z,6.47
2018-09-29T06:33:21.324Z,6.38
2018-09-29T06:34:31.255Z,6.46
2018-09-29T06:35:41.224Z,6.57
2018-09-29T06:36:51.122Z,6.5
2018-09-29T06:38:01.016Z,6.56
2018-09-29T06:39:10.973Z,6.65
2018-09-29T06:40:20.940Z,6.59
2018-09-29T06:41:30.899Z,6.74
2018-09-29T06:42:40.591Z,6.7
2018-09-29T06:43:50.560Z,6.74
2018-09-29T06:45:00.502Z,6.85
2018-09-29T06:46:10.455Z,6.83
2018-09-29T06:47:20.409Z,6.87
2018-09-29T06:48:30.101Z,6.95
2018-09-29T06:49:40.065Z,7.07
2018-09-29T06:50:50.002Z,7.04
2018-09-29T06:51:59.961Z,6.97
2018-09-29T06:53:09.946Z,7.1
2018-09-29T06:54:19.653Z,7.21
2018-09-29T06:55:29.748Z,7.18
2018-09-29T06:56:39.697Z,7.23
2018-09-29T06:57:49.649Z,7.32
2018-09-29T06:58:59.593Z,7.32
2018-09-29T07:00:09.291Z,7.37
2018-09-29T07:01:19.264Z,7.47
2018-09-29T07:02:29.224Z,7.47
2018-09-29T07:03:39.193Z,7.47
2018-09-29T07:04:48.896Z,7.62
2018-09-29T07:05:58.852Z,7.66
2018-09-29T07:07:08.794Z,7.75
2018-09-29T07:08:18.494Z,7.72
2018-09-29T07:09:28.452Z,7.87
2018-09-29T07:10:38.412Z,7.87
2018-09-29T07:11:48.094Z,7.95
2018-09-29T07:12:58.166Z,8.03
2018-09-29T07:14:08.555Z,8.01
2018-09-29T07:15:18.515Z,8.13
2018-09-29T07:16:28.464Z,8.14
2018-09-29T07:17:38.410Z,8.2
2018-09-29T07:18:48.100Z,8.16
2018-09-29T07:19:58.068Z,8.21
2018-09-29T07:21:08.025Z,8.23
2018-09-29T07:22:17.720Z,8.35
2018-09-29T07:23:27.806Z,8.42
2018-09-29T07:24:37.772Z,8.54
2018-09-29T07:25:47.751Z,8.57
2018-09-29T07:26:57.440Z,8.61
2018-09-29T07:28:07.380Z,8.68
2018-09-29T07:29:17.088Z,8.53
2018-09-29T07:30:27.033Z,8.69
2018-09-29T07:31:37.341Z,8.78
2018-09-29T07:32:47.072Z,8.82
2018-09-29T07:33:56.761Z,8.9
2018-09-29T07:35:06.489Z,8.92
2018-09-29T07:36:16.440Z,8.93
2018-09-29T07:37:26.415Z,9.03
2018-09-29T07:38:36.381Z,8.95
2018-09-29T07:39:46.358Z,9.05
2018-09-29T07:40:56.320Z,9.11
2018-09-29T07:42:05.745Z,9.08
2018-09-29T07:43:15.698Z,9.16
2018-09-29T07:44:25.666Z,9.19
2018-09-29T07:45:35.611Z,9.22
2018-09-29T07:46:45.567Z,9.21
2018-09-29T07:47:55.258Z,9.24
2018-09-29T07:49:05.006Z,9.42
2018-09-29T07:50:15.091Z,9.45
2018-09-29T07:51:25.048Z,9.49
2018-09-29T07:52:34.753Z,9.42
2018-09-29T07:53:44.698Z,9.59
2018-09-29T07:54:55.062Z,9.72
2018-09-29T07:56:05.275Z,9.84
2018-09-29T07:57:15.251Z,9.81
2018-09-29T07:58:24.950Z,9.87
2018-09-29T07:59:34.923Z,9.91
2018-09-29T08:00:44.886Z,9.99
2018-09-29T08:01:54.570Z,10.1
2018-09-29T08:03:04.574Z,10.25
2018-09-29T08:04:14.318Z,10.42
2018-09-29T08:05:24.285Z,10.65
2018-09-29T08:06:34.608Z,10.72
2018-09-29T08:07:44.561Z,10.94
2018-09-29T08:08:54.515Z,11.01
2018-09-29T08:10:04.475Z,11.25
2018-09-29T08:11:13.929Z,11.31
2018-09-29T08:12:24.198Z,11.52
2018-09-29T08:13:34.454Z,11.65
2018-09-29T08:14:44.406Z,11.83
2018-09-29T08:15:54.377Z,11.89
2018-09-29T08:17:04.329Z,11.99
2018-09-29T08:18:14.286Z,12.21
2018-09-29T08:19:23.977Z,12.29
2018-09-29T08:20:33.677Z,12.33
2018-09-29T08:21:43.652Z,12.4
2018-09-29T08:22:53.363Z,12.5
2018-09-29T08:24:03.066Z,12.68
2018-09-29T08:25:12.784Z,12.61
2018-09-29T08:26:22.241Z,12.66
2018-09-29T08:27:31.950Z,12.76
2018-09-29T08:28:41.918Z,12.9
2018-09-29T08:29:51.864Z,13.11
2018-09-29T08:31:01.304Z,13.33
2018-09-29T08:32:11.180Z,13.54
2018-09-29T08:33:21.274Z,13.78
2018-09-29T08:34:31.257Z,13.78
2018-09-29T08:35:41.229Z,13.86
2018-09-29T08:36:51.180Z,13.97
2018-09-29T08:38:01.308Z,14.07
2018-09-29T08:39:11.264Z,14.01
2018-09-29T08:40:21.220Z,14.13
2018-09-29T08:41:30.940Z,14.28
2018-09-29T08:42:40.897Z,14.53
2018-09-29T08:43:50.849Z,14.87
2018-09-29T08:45:00.820Z,15.02
2018-09-29T08:46:10.766Z,15.04
2018-09-29T08:47:20.719Z,14.82
2018-09-29T08:48:30.425Z,14.74
2018-09-29T08:49:40.404Z,14.61
2018-09-29T08:50:50.362Z,14.56
2018-09-29T08:52:00.325Z,14.59
2018-09-29T08:53:10.374Z,14.89
2018-09-29T08:54:20.286Z,15.15
2018-09-29T08:55:30.247Z,15.44
2018-09-29T08:56:39.954Z,15.73
2018-09-29T08:57:49.460Z,15.83
2018-09-29T08:58:59.412Z,16.09
2018-09-29T09:00:09.377Z,16.54
2018-09-29T09:01:19.347Z,16.47
2018-09-29T09:02:29.304Z,15.92
2018-09-29T09:03:39.006Z,15.87
2018-09-29T09:04:48.971Z,15.76
2018-09-29T09:05:58.947Z,15.8
2018-09-29T09:07:08.910Z,15.87
2018-09-29T09:08:18.884Z,15.98
2018-09-29T09:09:28.412Z,15.91
2018-09-29T09:10:38.780Z,15.98
2018-09-29T09:11:48.766Z,16.31
2018-09-29T09:12:58.720Z,16.61
2018-09-29T09:14:08.440Z,16.95
2018-09-29T09:15:18.150Z,17.05
2018-09-29T09:16:28.118Z,17.13
2018-09-29T09:17:38.074Z,17.31
2018-09-29T09:18:48.044Z,17.6
2018-09-29T09:19:57.499Z,17.17
2018-09-29T09:21:07.447Z,17.01
2018-09-29T09:22:17.148Z,17.02
2018-09-29T09:23:26.907Z,16.97
2018-09-29T09:24:36.704Z,16.89
2018-09-29T09:25:46.660Z,16.76
2018-09-29T09:26:56.107Z,16.87
2018-09-29T09:28:06.072Z,17.07
2018-09-29T09:29:15.797Z,17.32
2018-09-29T09:30:26.042Z,17.65
2018-09-29T09:31:36.024Z,17.38
2018-09-29T09:32:45.984Z,17.19
2018-09-29T09:33:55.957Z,16.79
2018-09-29T09:35:05.919Z,16.8
2018-09-29T09:36:15.617Z,16.72
2018-09-29T09:37:25.311Z,16.98
2018-09-29T09:38:35.016Z,17.3
2018-09-29T09:39:44.977Z,17.75
2018-09-29T09:40:54.912Z,18.37
2018-09-29T09:42:04.607Z,18.88
2018-09-29T09:43:14.564Z,18.31
2018-09-29T09:44:24.309Z,18.09
2018-09-29T09:45:34.257Z,18.23
2018-09-29T09:46:44.228Z,18.27
2018-09-29T09:47:53.930Z,18.73
2018-09-29T09:49:03.658Z,19.34
2018-09-29T09:50:13.627Z,19.67
2018-09-29T09:51:23.572Z,20.12
2018-09-29T09:52:33.527Z,20.34
2018-09-29T09:53:43.232Z,20.48
2018-09-29T09:54:53.188Z,20.08
2018-09-29T09:56:03.291Z,19.17
2018-09-29T09:57:13.364Z,18.37
2018-09-29T09:58:23.079Z,17.97
2018-09-29T09:59:32.813Z,18.16
2018-09-29T10:00:42.512Z,18.46
2018-09-29T10:01:52.488Z,18.92
2018-09-29T10:03:02.189Z,19.09
2018-09-29T10:04:12.292Z,18.98
2018-09-29T10:05:22.277Z,18.88
2018-09-29T10:06:32.102Z,18.68
2018-09-29T10:07:41.697Z,18.7
2018-09-29T10:08:51.409Z,18.91
2018-09-29T10:10:01.370Z,19.19
2018-09-29T10:11:10.817Z,19.41
2018-09-29T10:12:20.804Z,19.6
2018-09-29T10:13:30.805Z,19.05
2018-09-29T10:14:40.762Z,18.78
2018-09-29T10:15:50.710Z,18.48
2018-09-29T10:17:00.686Z,18.71
2018-09-29T10:18:10.640Z,18.57
2018-09-29T10:19:20.603Z,18.71
2018-09-29T10:20:30.559Z,18.58
2018-09-29T10:21:40.518Z,18.86
2018-09-29T10:22:50.220Z,19.38
2018-09-29T10:24:00.197Z,18.97
2018-09-29T10:25:09.647Z,18.85
2018-09-29T10:26:19.355Z,19.29
2018-09-29T10:27:29.331Z,19.67
2018-09-29T10:28:39.138Z,20.1
2018-09-29T10:29:49.154Z,20.66
2018-09-29T10:30:59.127Z,20.71
2018-09-29T10:32:08.845Z,20.21
2018-09-29T10:33:18.818Z,20.18
2018-09-29T10:34:28.514Z,20.27
2018-09-29T10:35:38.477Z,20.21
2018-09-29T10:36:48.437Z,19.85
2018-09-29T10:37:58.418Z,19.64
2018-09-29T10:39:08.115Z,20.03
2018-09-29T10:40:17.805Z,20.42
2018-09-29T10:41:27.559Z,21.04
2018-09-29T10:42:37.270Z,21.56
2018-09-29T10:43:47.255Z,21.62
2018-09-29T10:44:57.232Z,22.01
2018-09-29T10:46:07.330Z,22.38
2018-09-29T10:47:17.013Z,22.33
2018-09-29T10:48:26.983Z,21.94
2018-09-29T10:49:36.696Z,22.14
2018-09-29T10:50:46.398Z,22.36
2018-09-29T10:51:56.373Z,22.26
2018-09-29T10:53:06.610Z,22.36
2018-09-29T10:54:16.337Z,22.73
2018-09-29T10:55:26.311Z,22.77
2018-09-29T10:56:36.281Z,21.85
2018-09-29T10:57:45.987Z,21.07
2018-09-29T10:58:55.743Z,20.7
2018-09-29T11:00:05.797Z,20.63
2018-09-29T11:01:15.496Z,20.64
2018-09-29T11:02:25.470Z,20.89
2018-09-29T11:03:35.553Z,21.35
2018-09-29T11:04:45.532Z,22.1
2018-09-29T11:05:55.535Z,22.4
2018-09-29T11:07:05.296Z,22.89
2018-09-29T11:08:15.003Z,23.29
2018-09-29T11:09:24.735Z,23.85
2018-09-29T11:10:34.710Z,24.19
2018-09-29T11:11:44.667Z,24.18
2018-09-29T11:12:54.391Z,24.06
2018-09-29T11:14:04.366Z,24.16
2018-09-29T11:15:14.082Z,24.34
2018-09-29T11:16:24.072Z,23.48
2018-09-29T11:17:34.049Z,23.01
2018-09-29T11:18:43.763Z,22.28
2018-09-29T11:19:53.466Z,21.94
2018-09-29T11:21:03.675Z,20.89
2018-09-29T11:22:13.388Z,20.37
2018-09-29T11:23:23.353Z,20.19
2018-09-29T11:24:33.079Z,20.08
2018-09-29T11:25:42.773Z,19.84
2018-09-29T11:26:52.747Z,19.71
2018-09-29T11:28:02.525Z,19.52
2018-09-29T11:29:12.620Z,19.26
2018-09-29T11:30:22.345Z,18.83
2018-09-29T11:31:32.307Z,18.76
2018-09-29T11:32:42.265Z,18.67
2018-09-29T11:33:52.236Z,18.68
2018-09-29T11:35:01.937Z,19.04
2018-09-29T11:36:11.650Z,19.41
2018-09-29T11:37:21.611Z,19.7
2018-09-29T11:38:31.306Z,19.92
2018-09-29T11:39:41.022Z,20.33
2018-09-29T11:40:50.975Z,20.89
2018-09-29T11:42:00.930Z,21.33
2018-09-29T11:43:10.887Z,21.96
2018-09-29T11:44:20.866Z,22.51
2018-09-29T11:45:30.832Z,22.41
2018-09-29T11:46:40.545Z,22.33
2018-09-29T11:47:50.530Z,22.58
2018-09-29T11:49:00.218Z,22.36
2018-09-29T11:50:09.924Z,22.3
2018-09-29T11:51:19.623Z,22.62
2018-09-29T11:52:29.608Z,22.58
2018-09-29T11:53:39.312Z,22.19
2018-09-29T11:54:49.296Z,21.33
2018-09-29T11:55:59.033Z,21.25
2018-09-29T11:57:08.770Z,20.68
2018-09-29T11:58:18.739Z,19.99
2018-09-29T11:59:28.707Z,19.16
2018-09-29T12:00:38.417Z,18.74
2018-09-29T12:01:48.608Z,18.42
2018-09-29T12:02:58.886Z,18.13
2018-09-29T12:04:08.872Z,17.93
2018-09-29T12:05:18.819Z,17.66
2018-09-29T12:06:28.996Z,17.53
2018-09-29T12:07:39.374Z,17.56
2018-09-29T12:08:49.727Z,17.54
2018-09-29T12:09:59.684Z,17.53
2018-09-29T12:11:09.669Z,17.19
2018-09-29T12:12:19.628Z,16.91
2018-09-29T12:13:29.069Z,16.65
2018-09-29T12:14:39.026Z,16.66
2018-09-29T12:15:48.990Z,16.68
2018-09-29T12:16:58.988Z,16.91
2018-09-29T12:18:08.943Z,17.24
2018-09-29T12:19:18.912Z,17.66
2018-09-29T12:20:28.869Z,18.13
2018-09-29T12:21:38.846Z,18.46
2018-09-29T12:22:48.838Z,18.71
2018-09-29T12:23:58.539Z,19.42
2018-09-29T12:25:08.251Z,20.11
2018-09-29T12:26:17.682Z,20.74
2018-09-29T12:27:29.856Z,21.04
2018-09-29T12:28:39.812Z,21.3
2018-09-29T12:29:49.448Z,21.04
2018-09-29T12:30:59.604Z,20.3
2018-09-29T12:32:09.562Z,19.9
2018-09-29T12:33:19.520Z,19.66
2018-09-29T12:34:29.478Z,19.37
2018-09-29T12:35:39.456Z,18.88
2018-09-29T12:36:49.695Z,18.48
2018-09-29T12:38:00.038Z,18.23
2018-09-29T12:39:09.746Z,17.86
2018-09-29T12:40:19.445Z,17.93
2018-09-29T12:41:28.886Z,17.94
2018-09-29T12:42:38.987Z,18.13
2018-09-29T12:43:48.979Z,18.16
2018-09-29T12:44:59.363Z,18.12
2018-09-29T12:46:09.155Z,18.37
2018-09-29T12:47:19.121Z,18.76
2018-09-29T12:48:29.144Z,19.27
2018-09-29T12:49:38.586Z,19.44
2018-09-29T12:50:48.296Z,19.79
2018-09-29T12:51:57.986Z,20.3
2018-09-29T12:53:07.825Z,20.83
2018-09-29T12:54:17.271Z,21.14
2018-09-29T12:55:26.961Z,21.6
2018-09-29T12:56:36.667Z,21.59
2018-09-29T12:57:46.366Z,21.88
2018-09-29T12:58:56.340Z,22.31
2018-09-29T13:00:06.588Z,22.89
2018-09-29T13:01:16.596Z,23.4
2018-09-29T13:02:26.030Z,24.18
2018-09-29T13:03:35.990Z,24.03
2018-09-29T13:04:45.703Z,24.06
2018-09-29T13:05:55.417Z,23.99
2018-09-29T13:07:05.128Z,23.62
2018-09-29T13:08:15.094Z,23.58
2018-09-29T13:09:24.540Z,23.73
2018-09-29T13:10:34.249Z,23.96
2018-09-29T13:11:44.217Z,23.23
2018-09-29T13:12:53.914Z,23.48
2018-09-29T13:14:04.064Z,22.93
2018-09-29T13:15:14.038Z,22.76
2018-09-29T13:16:24.018Z,22.98
2018-09-29T13:17:33.977Z,23.47
2018-09-29T13:18:43.951Z,23.49
2018-09-29T13:19:53.899Z,23.51
2018-09-29T13:21:03.860Z,23.16
2018-09-29T13:22:13.831Z,22.55
2018-09-29T13:23:23.779Z,21.62
2018-09-29T13:24:33.737Z,21
2018-09-29T13:25:43.459Z,20.86
2018-09-29T13:26:53.446Z,20.53
2018-09-29T13:28:03.444Z,20.24
2018-09-29T13:29:13.152Z,20.39
2018-09-29T13:30:23.124Z,20.77
2018-09-29T13:31:32.833Z,20.75
2018-09-29T13:32:42.796Z,20.52
2018-09-29T13:33:52.774Z,20.33
2018-09-29T13:35:02.723Z,19.79
2018-09-29T13:36:12.696Z,19.62
2018-09-29T13:37:22.407Z,19.27
2018-09-29T13:38:32.358Z,19.38
2018-09-29T13:39:42.052Z,19.27
2018-09-29T13:40:51.758Z,19.35
2018-09-29T13:42:01.718Z,19.34
2018-09-29T13:43:11.153Z,19.38
2018-09-29T13:44:21.139Z,19.47
2018-09-29T13:45:31.091Z,19.56
2018-09-29T13:46:41.055Z,19.56
2018-09-29T13:47:51.065Z,19.38
2018-09-29T13:49:01.036Z,19.42
2018-09-29T13:50:10.750Z,19.84
2018-09-29T13:51:20.456Z,19.97
2018-09-29T13:52:30.482Z,19.81
2018-09-29T13:53:40.362Z,19.66
2018-09-29T13:54:50.206Z,19.74
2018-09-29T13:56:00.174Z,19.66
2018-09-29T13:57:10.139Z,19.47
2018-09-29T13:58:20.100Z,19.35
2018-09-29T13:59:30.100Z,19.34
2018-09-29T14:00:39.822Z,19.62
2018-09-29T14:01:49.785Z,19.72
2018-09-29T14:02:59.479Z,19.97
2018-09-29T14:04:09.465Z,20.26
2018-09-29T14:05:19.421Z,20.33
2018-09-29T14:06:29.369Z,19.96
2018-09-29T14:07:39.062Z,19.74
2018-09-29T14:08:49.042Z,19.67
2018-09-29T14:09:58.989Z,19.56
2018-09-29T14:11:08.965Z,19.48
2018-09-29T14:12:18.959Z,19.38
2018-09-29T14:13:28.150Z,19.42
2018-09-29T14:14:38.137Z,19.66
2018-09-29T14:15:48.092Z,19.47
2018-09-29T14:16:58.046Z,19.72
2018-09-29T14:18:07.757Z,19.81
2018-09-29T14:19:16.965Z,19.48
2018-09-29T14:20:26.921Z,19.56
2018-09-29T14:21:36.389Z,19.38
2018-09-29T14:22:46.351Z,19.44
2018-09-29T14:23:56.050Z,19.53
2018-09-29T14:25:06.019Z,19.56
2018-09-29T14:26:15.720Z,19.59
2018-09-29T14:27:25.680Z,19.84
2018-09-29T14:28:35.635Z,19.87
2018-09-29T14:29:45.346Z,19.84
2018-09-29T14:30:55.065Z,19.78
2018-09-29T14:32:04.764Z,19.78
2018-09-29T14:33:14.731Z,19.66
2018-09-29T14:34:24.701Z,19.29
2018-09-29T14:35:34.647Z,19.19
2018-09-29T14:36:44.352Z,18.89
2018-09-29T14:37:54.109Z,18.82
2018-09-29T14:39:03.795Z,18.98
2018-09-29T14:40:13.498Z,18.73
2018-09-29T14:41:23.445Z,18.57
2018-09-29T14:42:33.145Z,18.39
2018-09-29T14:43:43.114Z,18.34
2018-09-29T14:44:53.098Z,18.31
2018-09-29T14:46:03.135Z,18.13
2018-09-29T14:47:13.119Z,17.98
2018-09-29T14:48:23.069Z,18.06
2018-09-29T14:49:33.041Z,18.13
2018-09-29T14:50:43.006Z,18.23
2018-09-29T14:51:52.722Z,18.15
2018-09-29T14:53:02.454Z,18.24
2018-09-29T14:54:12.415Z,18.39
2018-09-29T14:55:22.389Z,18.57
2018-09-29T14:56:32.367Z,19.04
2018-09-29T14:57:42.359Z,19.48
2018-09-29T14:58:52.407Z,19.59
2018-09-29T15:00:02.120Z,19.85
2018-09-29T15:01:12.061Z,19.62
2018-09-29T15:02:22.032Z,19.29
2018-09-29T15:03:32.007Z,18.76
2018-09-29T15:04:41.976Z,18.33
2018-09-29T15:05:51.946Z,18.11
2018-09-29T15:07:01.908Z,18
2018-09-29T15:08:11.868Z,18.06
2018-09-29T15:09:21.564Z,18
2018-09-29T15:10:31.286Z,18.02
2018-09-29T15:11:41.002Z,18.11
2018-09-29T15:12:50.991Z,18.28
2018-09-29T15:14:00.967Z,18.43
2018-09-29T15:15:10.936Z,18.48
2018-09-29T15:16:20.635Z,18.51
2018-09-29T15:17:30.586Z,18.58
2018-09-29T15:18:40.557Z,18.71